createdAt,value
2019-05-13T00:01:50.765Z,9.71
2019-05-13T00:04:25.357Z,9.72
2019-05-13T00:07:04.679Z,9.77
2019-05-13T00:09:37.770Z,9.82
2019-05-13T00:12:10.353Z,9.84
2019-05-13T00:14:43.460Z,9.80
2019-05-13T00:17:17.069Z,9.81
2019-05-13T00:19:49.625Z,9.83
2019-05-13T00:22:23.446Z,9.80
2019-05-13T00:24:54.432Z,9.82
2019-05-13T00:27:26.396Z,9.84
2019-05-13T00:29:58.461Z,9.78
2019-05-13T00:32:30.344Z,9.77
2019-05-13T00:35:03.959Z,9.81
2019-05-13T00:37:45.442Z,9.83
2019-05-13T00:40:17.480Z,9.84
2019-05-13T00:42:49.036Z,9.87
2019-05-13T00:45:21.064Z,9.83
2019-05-13T00:47:54.431Z,9.86
2019-05-13T00:50:26.277Z,9.85
2019-05-13T00:52:57.882Z,9.83
2019-05-13T00:55:31.054Z,9.89
2019-05-13T00:58:04.229Z,9.88
2019-05-13T01:00:35.803Z,9.84
2019-05-13T01:03:08.074Z,9.90
2019-05-13T01:05:39.894Z,9.91
2019-05-13T01:08:14.539Z,9.87
2019-05-13T01:10:48.956Z,9.93
2019-05-13T01:13:20.578Z,9.93
2019-05-13T01:15:54.193Z,9.86
2019-05-13T01:18:26.725Z,9.83
2019-05-13T01:20:58.425Z,9.05
2019-05-13T01:23:30.519Z,9.81
2019-05-13T01:26:03.901Z,9.85
2019-05-13T01:28:36.429Z,9.82
2019-05-13T01:31:10.234Z,9.79
2019-05-13T01:33:44.322Z,9.76
2019-05-13T01:36:17.117Z,9.72
2019-05-13T01:38:48.687Z,9.71
2019-05-13T01:41:20.188Z,9.65
2019-05-13T01:43:51.592Z,9.60
2019-05-13T01:46:25.946Z,9.66
2019-05-13T01:48:57.682Z,9.59
2019-05-13T01:51:30.007Z,9.59
2019-05-13T01:54:03.970Z,9.58
2019-05-13T01:56:35.831Z,9.62
2019-05-13T01:59:08.614Z,9.61
2019-05-13T02:01:40.125Z,9.62
2019-05-13T02:04:14.035Z,9.56
2019-05-13T02:06:44.911Z,9.56
2019-05-13T02:09:18.684Z,9.53
2019-05-13T02:11:53.821Z,9.57
2019-05-13T02:14:25.858Z,9.57
2019-05-13T02:16:59.787Z,9.62
2019-05-13T02:19:33.413Z,9.57
2019-05-13T02:22:06.396Z,9.57
2019-05-13T02:24:38.247Z,9.65
2019-05-13T02:27:09.809Z,9.63
2019-05-13T02:29:43.492Z,9.66
2019-05-13T02:32:16.219Z,9.77
2019-05-13T02:34:47.701Z,9.77
2019-05-13T02:37:22.879Z,9.73
2019-05-13T02:39:53.354Z,9.76
2019-05-13T02:42:24.917Z,9.76
2019-05-13T02:44:57.733Z,9.70
2019-05-13T02:47:33.097Z,9.64
2019-05-13T02:50:14.948Z,9.63
2019-05-13T02:52:48.032Z,9.61
2019-05-13T02:55:38.410Z,9.62
2019-05-13T02:58:12.401Z,9.65
2019-05-13T03:00:44.436Z,9.63
2019-05-13T03:03:17.771Z,9.60
2019-05-13T03:05:52.754Z,9.57
2019-05-13T03:08:39.866Z,9.51
2019-05-13T03:10:59.155Z,9.54
2019-05-13T03:13:32.763Z,9.61
2019-05-13T03:16:24.948Z,9.66
2019-05-13T03:18:56.673Z,9.68
2019-05-13T03:21:28.466Z,9.69
2019-05-13T03:24:03.044Z,9.69
2019-05-13T03:26:33.870Z,9.68
2019-05-13T03:29:05.468Z,9.61
2019-05-13T03:31:37.447Z,9.64
2019-05-13T03:34:08.680Z,9.65
2019-05-13T03:36:45.726Z,9.65
2019-05-13T03:39:16.562Z,9.74
2019-05-13T03:41:52.888Z,9.65
2019-05-13T03:44:26.624Z,9.62
2019-05-13T03:46:59.122Z,9.55
2019-05-13T03:49:34.018Z,9.61
2019-05-13T03:52:05.784Z,9.63
2019-05-13T03:54:37.628Z,9.56
2019-05-13T03:57:12.595Z,9.61
2019-05-13T03:59:44.277Z,9.57
2019-05-13T04:02:16.199Z,9.57
2019-05-13T04:04:53.421Z,9.56
2019-05-13T04:07:27.803Z,9.58
2019-05-13T04:10:03.300Z,9.53
2019-05-13T04:12:43.788Z,9.54
2019-05-13T04:15:17.787Z,9.47
2019-05-13T04:17:53.155Z,9.45
2019-05-13T04:20:26.059Z,9.49
2019-05-13T04:23:02.694Z,9.53
2019-05-13T04:25:33.089Z,8.60
2019-05-13T04:28:05.346Z,9.45
2019-05-13T04:30:36.954Z,9.46
2019-05-13T04:33:08.705Z,9.45
2019-05-13T04:35:42.548Z,9.43
2019-05-13T04:38:13.908Z,9.43
2019-05-13T04:40:45.859Z,9.49
2019-05-13T04:43:17.486Z,9.45
2019-05-13T04:45:52.239Z,9.47
2019-05-13T04:48:23.111Z,9.48
2019-05-13T04:50:54.927Z,9.46
2019-05-13T04:53:26.292Z,9.40
2019-05-13T04:56:03.622Z,9.41
2019-05-13T04:58:37.591Z,9.46
2019-05-13T05:01:48.801Z,9.44
2019-05-13T05:04:31.810Z,9.51
2019-05-13T05:07:37.039Z,9.54
2019-05-13T05:10:49.806Z,9.51
2019-05-13T05:13:46.403Z,9.55
2019-05-13T05:16:48.333Z,9.62
2019-05-13T05:19:46.687Z,9.67
2019-05-13T05:22:28.833Z,9.68
2019-05-13T05:25:42.327Z,9.65
2019-05-13T05:28:33.787Z,9.63
2019-05-13T05:31:25.661Z,9.70
2019-05-13T05:34:32.186Z,9.70
2019-05-13T05:37:28.446Z,9.72
2019-05-13T05:40:01.959Z,9.71
2019-05-13T05:42:42.980Z,9.77
2019-05-13T05:45:18.851Z,9.78
2019-05-13T05:47:52.347Z,9.79
2019-05-13T05:50:23.660Z,9.88
2019-05-13T05:52:57.279Z,9.81
2019-05-13T05:55:31.778Z,9.82
2019-05-13T05:58:04.514Z,9.81
2019-05-13T06:00:41.528Z,9.81
2019-05-13T06:03:14.009Z,9.93
2019-05-13T06:05:45.422Z,9.91
2019-05-13T06:08:18.359Z,9.96
2019-05-13T06:10:53.549Z,9.91
2019-05-13T06:13:23.400Z,9.95
2019-05-13T06:15:54.810Z,9.97
2019-05-13T06:18:26.185Z,10.07
2019-05-13T06:20:57.520Z,10.04
2019-05-13T06:23:33.559Z,10.04
2019-05-13T06:26:06.689Z,9.96
2019-05-13T06:28:38.549Z,9.95
2019-05-13T06:31:12.632Z,9.92
2019-05-13T06:33:43.449Z,9.94
2019-05-13T06:36:15.951Z,10.03
2019-05-13T06:38:51.163Z,9.95
2019-05-13T06:41:22.089Z,10.00
2019-05-13T06:43:55.670Z,10.05
2019-05-13T06:46:28.052Z,10.05
2019-05-13T06:48:59.395Z,10.04
2019-05-13T06:51:31.497Z,10.13
2019-05-13T06:54:03.485Z,10.17
2019-05-13T06:56:35.183Z,10.17
2019-05-13T06:59:11.896Z,10.13
2019-05-13T07:01:45.609Z,10.15
2019-05-13T07:04:21.934Z,10.17
2019-05-13T07:07:08.746Z,10.24
2019-05-13T07:09:32.000Z,10.24
2019-05-13T07:12:03.555Z,10.22
2019-05-13T07:14:35.843Z,10.22
2019-05-13T07:17:07.404Z,10.15
2019-05-13T07:19:41.408Z,10.17
2019-05-13T07:22:15.190Z,10.18
2019-05-13T07:24:47.176Z,10.22
2019-05-13T07:27:18.697Z,10.30
2019-05-13T07:29:51.505Z,10.35
2019-05-13T07:32:23.691Z,10.29
2019-05-13T07:34:57.235Z,10.29
2019-05-13T07:37:31.774Z,10.27
2019-05-13T07:40:13.639Z,10.33
2019-05-13T07:42:46.645Z,10.42
2019-05-13T07:45:18.396Z,10.36
2019-05-13T07:47:52.107Z,10.46
2019-05-13T07:50:26.753Z,10.56
2019-05-13T07:52:58.545Z,10.48
2019-05-13T07:55:31.706Z,10.50
2019-05-13T07:58:03.214Z,10.54
2019-05-13T08:00:35.146Z,10.51
2019-05-13T08:03:06.962Z,10.58
2019-05-13T08:05:38.608Z,10.52
2019-05-13T08:08:11.684Z,10.56
2019-05-13T08:10:46.271Z,10.61
2019-05-13T08:13:17.996Z,10.54
2019-05-13T08:15:49.397Z,10.61
2019-05-13T08:18:22.171Z,10.74
2019-05-13T08:20:55.399Z,10.74
2019-05-13T08:23:26.862Z,10.74
2019-05-13T08:25:58.848Z,10.81
2019-05-13T08:28:32.871Z,10.82
2019-05-13T08:31:04.307Z,10.78
2019-05-13T08:33:35.839Z,10.99
2019-05-13T08:36:07.306Z,10.91
2019-05-13T08:38:43.125Z,10.90
2019-05-13T08:41:18.908Z,10.90
2019-05-13T08:43:47.930Z,10.96
2019-05-13T08:46:21.688Z,10.93
2019-05-13T08:48:53.066Z,10.95
2019-05-13T08:51:24.498Z,11.06
2019-05-13T08:53:55.767Z,10.97
2019-05-13T08:56:27.317Z,10.91
2019-05-13T08:59:01.252Z,10.95
2019-05-13T09:01:34.847Z,11.01
2019-05-13T09:04:06.425Z,11.00
2019-05-13T09:06:38.156Z,10.34
2019-05-13T09:09:11.479Z,11.20
2019-05-13T09:11:46.534Z,11.22
2019-05-13T09:14:21.839Z,11.22
2019-05-13T09:16:52.793Z,11.24
2019-05-13T09:19:24.174Z,11.30
2019-05-13T09:21:55.577Z,11.35
2019-05-13T09:24:34.113Z,11.31
2019-05-13T09:27:01.925Z,11.36
2019-05-13T09:29:33.251Z,11.42
2019-05-13T09:32:04.828Z,11.39
2019-05-13T09:34:36.033Z,11.43
2019-05-13T09:37:07.459Z,11.58
2019-05-13T09:39:41.492Z,11.52
2019-05-13T09:42:13.035Z,11.55
2019-05-13T09:44:47.695Z,11.84
2019-05-13T09:47:21.534Z,11.98
2019-05-13T09:49:54.568Z,11.91
2019-05-13T09:52:26.421Z,12.09
2019-05-13T09:54:59.224Z,11.96
2019-05-13T09:57:32.167Z,11.99
2019-05-13T10:00:16.335Z,12.21
2019-05-13T10:02:51.760Z,12.37
2019-05-13T10:05:23.397Z,12.20
2019-05-13T10:07:56.730Z,12.30
2019-05-13T10:10:31.900Z,12.61
2019-05-13T10:13:11.996Z,12.17
2019-05-13T10:15:37.246Z,12.19
2019-05-13T10:18:12.638Z,12.36
2019-05-13T10:20:52.888Z,12.32
2019-05-13T10:23:27.365Z,12.61
2019-05-13T10:26:03.873Z,12.41
2019-05-13T10:28:36.114Z,12.36
2019-05-13T10:31:08.394Z,12.25
2019-05-13T10:33:41.998Z,12.33
2019-05-13T10:36:15.451Z,12.17
2019-05-13T10:38:47.134Z,12.34
2019-05-13T10:41:21.613Z,12.47
2019-05-13T10:43:53.041Z,12.71
2019-05-13T10:46:26.400Z,12.61
2019-05-13T10:49:01.929Z,12.34
2019-05-13T10:51:33.521Z,12.31
2019-05-13T10:54:04.936Z,12.33
2019-05-13T10:56:36.346Z,12.32
2019-05-13T10:59:12.372Z,12.39
2019-05-13T11:01:44.509Z,12.35
2019-05-13T11:04:16.928Z,12.19
2019-05-13T11:06:52.380Z,12.13
2019-05-13T11:09:24.772Z,12.44
2019-05-13T11:11:57.017Z,12.25
2019-05-13T11:14:28.466Z,12.29
2019-05-13T11:17:01.832Z,12.40
2019-05-13T11:19:37.105Z,12.50
2019-05-13T11:22:08.312Z,12.44
2019-05-13T11:24:42.860Z,12.45
2019-05-13T11:27:12.780Z,12.56
2019-05-13T11:29:45.164Z,12.63
2019-05-13T11:32:21.599Z,12.59
2019-05-13T11:34:53.343Z,12.60
2019-05-13T11:37:25.306Z,12.67
2019-05-13T11:39:56.382Z,12.72
2019-05-13T11:42:27.930Z,12.76
2019-05-13T11:45:01.455Z,12.86
2019-05-13T11:47:43.600Z,12.94
2019-05-13T11:50:16.739Z,12.91
2019-05-13T11:52:48.479Z,12.12
2019-05-13T11:55:23.003Z,13.13
2019-05-13T11:57:56.590Z,13.12
2019-05-13T12:01:06.824Z,13.26
2019-05-13T12:03:38.373Z,13.10
2019-05-13T12:06:09.973Z,13.08
2019-05-13T12:08:50.176Z,13.10
2019-05-13T12:11:16.622Z,13.03
2019-05-13T12:13:48.630Z,13.11
2019-05-13T12:16:22.878Z,13.17
2019-05-13T12:18:54.564Z,13.09
2019-05-13T12:21:26.215Z,13.19
2019-05-13T12:24:07.092Z,13.24
2019-05-13T12:26:33.397Z,13.21
2019-05-13T12:29:05.519Z,13.24
2019-05-13T12:31:40.692Z,13.16
2019-05-13T12:34:13.247Z,13.07
2019-05-13T12:36:49.516Z,13.28
2019-05-13T12:39:23.954Z,13.36
2019-05-13T12:41:54.377Z,13.34
2019-05-13T12:44:25.787Z,13.61
2019-05-13T12:46:57.567Z,13.82
2019-05-13T12:49:33.530Z,13.77
2019-05-13T12:52:05.195Z,13.46
2019-05-13T12:54:43.640Z,13.50
2019-05-13T12:57:17.433Z,13.38
2019-05-13T12:59:48.893Z,13.41
2019-05-13T13:02:22.596Z,13.37
2019-05-13T13:05:10.524Z,13.43
2019-05-13T13:07:26.940Z,13.36
2019-05-13T13:09:58.682Z,13.36
2019-05-13T13:12:35.987Z,13.44
2019-05-13T13:15:36.439Z,13.56
2019-05-13T13:17:47.033Z,13.37
2019-05-13T13:20:18.580Z,13.29
2019-05-13T13:22:50.255Z,13.16
2019-05-13T13:25:23.945Z,13.14
2019-05-13T13:28:15.229Z,13.13
2019-05-13T13:30:34.575Z,13.19
2019-05-13T13:33:03.065Z,13.17
2019-05-13T13:35:34.706Z,13.17
2019-05-13T13:38:09.201Z,13.32
2019-05-13T13:40:45.706Z,13.33
2019-05-13T13:43:15.917Z,13.16
2019-05-13T13:48:25.353Z,13.29
2019-05-13T13:50:56.198Z,13.15
2019-05-13T13:53:28.301Z,12.26
2019-05-13T13:56:02.171Z,13.16
2019-05-13T13:58:33.318Z,13.04
2019-05-13T14:01:12.325Z,13.05
2019-05-13T14:03:46.180Z,13.05
2019-05-13T14:07:20.568Z,13.11
2019-05-13T14:08:51.895Z,13.06
2019-05-13T14:11:23.997Z,13.07
2019-05-13T14:13:56.037Z,13.09
2019-05-13T14:16:32.498Z,12.97
2019-05-13T14:19:02.017Z,12.90
2019-05-13T14:21:34.260Z,12.86
2019-05-13T14:24:05.943Z,12.80
2019-05-13T14:26:39.171Z,12.83
2019-05-13T14:29:12.352Z,12.59
2019-05-13T14:31:45.235Z,12.86
2019-05-13T14:34:17.117Z,12.81
2019-05-13T14:36:48.811Z,12.83
2019-05-13T14:39:22.229Z,12.99
2019-05-13T14:41:53.659Z,12.87
2019-05-13T14:44:25.249Z,12.90
2019-05-13T14:46:58.161Z,12.92
2019-05-13T14:49:31.679Z,12.87
2019-05-13T14:52:03.373Z,13.00
2019-05-13T14:54:34.605Z,13.07
2019-05-13T14:57:11.700Z,13.14
2019-05-13T14:59:41.501Z,13.00
2019-05-13T15:02:13.082Z,13.01
2019-05-13T15:04:44.368Z,12.90
2019-05-13T15:07:15.840Z,12.90
2019-05-13T15:09:51.523Z,12.81
2019-05-13T15:12:23.713Z,12.92
2019-05-13T15:14:55.289Z,13.12
2019-05-13T15:17:26.512Z,13.23
2019-05-13T15:19:58.145Z,13.16
2019-05-13T15:22:32.828Z,13.28
2019-05-13T15:25:15.025Z,13.16
2019-05-13T15:27:46.524Z,13.11
2019-05-13T15:30:21.789Z,13.15
2019-05-13T15:32:54.091Z,13.22
2019-05-13T15:35:25.496Z,13.17
2019-05-13T15:37:57.966Z,13.24
2019-05-13T15:40:31.208Z,13.28
2019-05-13T15:43:04.726Z,13.19
2019-05-13T15:45:38.438Z,13.30
2019-05-13T15:48:11.570Z,12.87
2019-05-13T15:50:43.190Z,12.97
2019-05-13T15:53:14.747Z,12.36
2019-05-13T15:55:48.772Z,13.09
2019-05-13T15:58:37.687Z,13.11
2019-05-13T16:00:54.152Z,13.02
2019-05-13T16:03:26.618Z,13.03
2019-05-13T16:05:58.237Z,13.02
2019-05-13T16:08:32.035Z,12.78
2019-05-13T16:11:05.146Z,12.97
2019-05-13T16:13:37.591Z,12.90
2019-05-13T16:16:12.128Z,12.74
2019-05-13T16:18:45.442Z,12.62
2019-05-13T16:21:17.284Z,12.72
2019-05-13T16:23:51.400Z,12.56
2019-05-13T16:26:22.946Z,12.49
2019-05-13T16:28:54.488Z,12.36
2019-05-13T16:31:26.207Z,12.16
2019-05-13T16:33:57.551Z,12.18
2019-05-13T16:36:30.825Z,12.23
2019-05-13T16:39:06.126Z,12.16
2019-05-13T16:41:37.643Z,11.98
2019-05-13T16:44:11.642Z,12.01
2019-05-13T16:46:46.662Z,12.03
2019-05-13T16:49:21.153Z,11.86
2019-05-13T16:51:52.230Z,11.96
2019-05-13T16:54:24.844Z,12.04
2019-05-13T16:56:56.117Z,12.01
2019-05-13T16:59:27.881Z,11.99
2019-05-13T17:02:01.801Z,11.92
2019-05-13T17:04:33.444Z,11.88
2019-05-13T17:07:12.030Z,11.87
2019-05-13T17:09:43.654Z,11.89
2019-05-13T17:12:15.970Z,11.98
2019-05-13T17:14:47.682Z,11.87
2019-05-13T17:17:19.036Z,11.90
2019-05-13T17:19:53.600Z,11.90
2019-05-13T17:22:24.135Z,11.86
2019-05-13T17:24:55.630Z,11.83
2019-05-13T17:27:27.929Z,11.72
2019-05-13T17:30:02.217Z,11.85
2019-05-13T17:32:44.745Z,11.65
2019-05-13T17:35:18.204Z,11.64
2019-05-13T17:37:51.812Z,11.63
2019-05-13T17:40:23.580Z,11.58
2019-05-13T17:42:55.613Z,11.60
2019-05-13T17:45:27.354Z,11.32
2019-05-13T17:48:35.521Z,11.35
2019-05-13T17:51:07.633Z,11.24
2019-05-13T17:53:41.276Z,11.44
2019-05-13T17:56:12.963Z,11.55
2019-05-13T17:58:44.274Z,11.45
2019-05-13T18:01:16.099Z,11.43
2019-05-13T18:03:47.747Z,11.47
2019-05-13T18:06:19.325Z,11.39
2019-05-13T18:08:51.858Z,11.28
2019-05-13T18:11:23.496Z,11.27
2019-05-13T18:13:54.768Z,11.27
2019-05-13T18:16:26.989Z,11.34
2019-05-13T18:18:58.404Z,11.36
2019-05-13T18:21:31.869Z,11.20
2019-05-13T18:24:03.950Z,11.14
2019-05-13T18:26:35.734Z,11.17
2019-05-13T18:29:07.625Z,11.02
2019-05-13T18:31:41.810Z,10.80
2019-05-13T18:34:12.997Z,10.65
2019-05-13T18:36:44.462Z,10.62
2019-05-13T18:39:16.187Z,10.60
2019-05-13T18:41:49.446Z,10.76
2019-05-13T18:44:20.845Z,10.57
2019-05-13T18:46:52.581Z,10.61
2019-05-13T18:49:23.851Z,10.65
2019-05-13T18:51:55.177Z,10.67
2019-05-13T18:54:26.398Z,10.59
2019-05-13T18:56:57.650Z,10.57
2019-05-13T18:59:29.061Z,10.74
2019-05-13T19:02:01.518Z,10.54
2019-05-13T19:04:33.289Z,10.57
2019-05-13T19:07:07.687Z,10.45
2019-05-13T19:09:38.090Z,10.43
2019-05-13T19:12:11.637Z,10.43
2019-05-13T19:14:43.898Z,10.42
2019-05-13T19:17:15.215Z,10.36
2019-05-13T19:19:48.137Z,10.40
2019-05-13T19:22:21.427Z,10.40
2019-05-13T19:24:52.609Z,10.36
2019-05-13T19:27:24.567Z,10.37
2019-05-13T19:29:55.894Z,10.38
2019-05-13T19:32:32.207Z,10.38
2019-05-13T19:35:13.644Z,10.44
2019-05-13T19:37:45.607Z,10.41
2019-05-13T19:40:17.134Z,10.42
2019-05-13T19:42:48.517Z,10.44
2019-05-13T19:45:21.753Z,10.51
2019-05-13T19:47:53.538Z,10.62
2019-05-13T19:50:26.764Z,10.48
2019-05-13T19:52:58.587Z,10.47
2019-05-13T19:55:33.535Z,10.50
2019-05-13T19:58:04.815Z,10.52
2019-05-13T20:00:36.281Z,10.31
2019-05-13T20:03:11.540Z,10.62
2019-05-13T20:05:43.414Z,10.53
2019-05-13T20:08:14.879Z,10.63
2019-05-13T20:10:47.762Z,10.36
2019-05-13T20:13:21.656Z,10.42
2019-05-13T20:15:52.336Z,10.33
2019-05-13T20:18:26.492Z,10.28
2019-05-13T20:20:58.680Z,10.27
2019-05-13T20:23:32.292Z,10.33
2019-05-13T20:26:03.666Z,10.39
2019-05-13T20:28:35.183Z,10.29
2019-05-13T20:31:06.649Z,10.25
2019-05-13T20:33:40.159Z,10.31
2019-05-13T20:36:11.996Z,10.32
2019-05-13T20:38:44.610Z,10.26
2019-05-13T20:41:15.994Z,10.37
2019-05-13T20:43:48.225Z,10.27
2019-05-13T20:46:19.782Z,10.25
2019-05-13T20:48:52.040Z,10.32
2019-05-13T20:51:23.870Z,10.23
2019-05-13T20:53:55.549Z,10.24
2019-05-13T20:56:27.585Z,10.28
2019-05-13T20:58:59.212Z,10.44
2019-05-13T21:01:30.661Z,10.22
2019-05-13T21:04:02.380Z,10.20
2019-05-13T21:06:35.656Z,10.20
2019-05-13T21:09:13.623Z,10.11
2019-05-13T21:11:42.401Z,10.13
2019-05-13T21:14:18.095Z,10.06
2019-05-13T21:16:53.669Z,10.11
2019-05-13T21:19:27.500Z,10.00
2019-05-13T21:21:59.266Z,10.14
2019-05-13T21:24:31.925Z,10.22
2019-05-13T21:27:04.098Z,10.19
2019-05-13T21:29:37.943Z,10.15
2019-05-13T21:32:11.597Z,10.06
2019-05-13T21:34:42.689Z,10.11
2019-05-13T21:37:14.255Z,10.05
2019-05-13T21:39:47.123Z,10.06
2019-05-13T21:42:18.721Z,9.97
2019-05-13T21:44:51.421Z,10.01
2019-05-13T21:47:23.934Z,9.98
2019-05-13T21:49:55.727Z,9.94
2019-05-13T21:52:27.163Z,9.94
2019-05-13T21:54:58.675Z,9.89
2019-05-13T21:57:32.929Z,9.85
2019-05-13T22:00:14.031Z,9.91
2019-05-13T22:02:45.535Z,9.81
2019-05-13T22:05:17.194Z,9.91
2019-05-13T22:07:49.543Z,9.93
2019-05-13T22:10:21.611Z,9.83
2019-05-13T22:12:53.651Z,9.88
2019-05-13T22:15:25.281Z,9.86
2019-05-13T22:17:56.685Z,9.74
2019-05-13T22:20:28.069Z,9.64
2019-05-13T22:23:01.386Z,9.56
2019-05-13T22:25:32.893Z,9.65
2019-05-13T22:28:06.338Z,9.64
2019-05-13T22:30:38.028Z,9.60
2019-05-13T22:33:09.411Z,9.56
2019-05-13T22:35:41.768Z,9.62
2019-05-13T22:38:13.616Z,9.53
2019-05-13T22:40:45.162Z,9.57
2019-05-13T22:43:16.788Z,9.50
2019-05-13T22:45:48.151Z,9.43
2019-05-13T22:48:22.284Z,9.40
2019-05-13T22:50:54.995Z,9.44
2019-05-13T22:53:31.731Z,9.32
2019-05-13T22:56:03.360Z,9.37
2019-05-13T22:58:34.665Z,9.30
2019-05-13T23:01:06.004Z,9.29
2019-05-13T23:03:37.717Z,9.33
2019-05-13T23:06:12.081Z,9.30
2019-05-13T23:08:45.983Z,9.32
2019-05-13T23:11:17.172Z,9.21
2019-05-13T23:13:48.669Z,9.27
2019-05-13T23:16:22.095Z,9.31
2019-05-13T23:18:53.494Z,9.29
2019-05-13T23:21:25.148Z,9.30
2019-05-13T23:23:56.959Z,9.29
2019-05-13T23:26:28.365Z,9.35
2019-05-13T23:29:01.431Z,9.34
2019-05-13T23:31:33.266Z,9.35
2019-05-13T23:34:05.037Z,9.32
2019-05-13T23:36:36.361Z,9.41
2019-05-13T23:39:08.151Z,9.40
2019-05-13T23:41:41.616Z,9.33
2019-05-13T23:44:25.066Z,9.33
2019-05-13T23:46:48.217Z,9.35
2019-05-13T23:49:21.120Z,9.44
2019-05-13T23:51:52.985Z,9.42
2019-05-13T23:54:24.963Z,9.40
2019-05-13T23:56:56.541Z,9.42
2019-05-13T23:59:27.893Z,9.46
